createdAt,value
2023-02-04T00:00:29.705Z,4.20
2023-02-04T00:02:56.869Z,4.20
2023-02-04T00:05:25.271Z,4.10
2023-02-04T00:07:52.351Z,4.20
2023-02-04T00:10:19.664Z,4.30
2023-02-04T00:12:46.604Z,4.20
2023-02-04T00:15:13.902Z,4.10
2023-02-04T00:17:40.950Z,4.10
2023-02-04T00:20:11.334Z,4.00
2023-02-04T00:22:38.419Z,4.10
2023-02-04T00:25:06.162Z,4.10
2023-02-04T00:27:33.096Z,4.00
2023-02-04T00:30:02.247Z,4.00
2023-02-04T00:32:29.138Z,4.20
2023-02-04T00:34:56.456Z,3.80
2023-02-04T00:37:23.543Z,3.80
2023-02-04T00:39:50.656Z,3.70
2023-02-04T00:42:18.094Z,3.80
2023-02-04T00:44:45.328Z,3.90
2023-02-04T00:47:12.650Z,3.90
2023-02-04T00:49:40.072Z,3.90
2023-02-04T00:52:07.281Z,3.70
2023-02-04T00:54:34.340Z,3.90
2023-02-04T00:57:01.568Z,3.70
2023-02-04T00:59:28.490Z,3.50
2023-02-04T01:01:55.615Z,3.20
2023-02-04T01:04:23.425Z,3.20
2023-02-04T01:06:50.407Z,3.20
2023-02-04T01:09:17.476Z,3.20
2023-02-04T01:11:44.611Z,3.00
2023-02-04T01:14:12.510Z,3.10
2023-02-04T01:16:39.620Z,3.00
2023-02-04T01:19:06.972Z,3.00
2023-02-04T01:21:34.011Z,3.10
2023-02-04T01:24:01.066Z,3.00
2023-02-04T01:26:28.153Z,2.90
2023-02-04T01:28:55.326Z,2.90
2023-02-04T01:31:22.445Z,2.90
2023-02-04T01:33:49.568Z,3.10
2023-02-04T01:36:21.608Z,3.10
2023-02-04T01:38:50.264Z,3.10
2023-02-04T01:41:19.148Z,3.10
2023-02-04T01:43:49.464Z,3.00
2023-02-04T01:46:17.710Z,2.80
2023-02-04T01:48:45.882Z,2.80
2023-02-04T01:51:26.887Z,2.70
2023-02-04T01:53:55.499Z,2.90
2023-02-04T01:56:30.423Z,2.90
2023-02-04T01:58:59.156Z,3.00
2023-02-04T02:01:56.568Z,3.00
2023-02-04T02:04:33.915Z,3.00
2023-02-04T02:07:06.424Z,3.00
2023-02-04T02:09:35.176Z,3.00
2023-02-04T02:12:04.426Z,2.90
2023-02-04T02:14:31.670Z,2.80
2023-02-04T02:16:58.955Z,2.80
2023-02-04T02:19:36.236Z,2.80
2023-02-04T02:22:28.826Z,2.80
2023-02-04T02:24:55.726Z,2.70
2023-02-04T02:27:24.002Z,2.70
2023-02-04T02:29:51.995Z,2.70
2023-02-04T02:32:19.675Z,2.50
2023-02-04T02:34:47.380Z,2.50
2023-02-04T02:37:14.760Z,2.70
2023-02-04T02:39:46.191Z,2.80
2023-02-04T02:42:19.895Z,2.90
2023-02-04T02:44:50.037Z,2.90
2023-02-04T02:47:22.718Z,2.90
2023-02-04T02:49:54.216Z,2.90
2023-02-04T02:52:23.103Z,3.10
2023-02-04T02:54:50.619Z,3.10
2023-02-04T02:57:23.384Z,2.90
2023-02-04T02:59:50.625Z,3.00
2023-02-04T03:02:24.247Z,3.00
2023-02-04T03:04:58.519Z,2.80
2023-02-04T03:07:26.468Z,2.70
2023-02-04T03:09:54.402Z,2.70
2023-02-04T03:12:21.939Z,2.70
2023-02-04T03:14:49.189Z,2.70
2023-02-04T03:17:16.925Z,2.70
2023-02-04T03:19:44.412Z,2.40
2023-02-04T03:22:11.918Z,2.50
2023-02-04T03:24:39.425Z,2.60
2023-02-04T03:27:07.218Z,2.70
2023-02-04T03:29:34.617Z,2.80
2023-02-04T03:32:02.585Z,2.60
2023-02-04T03:34:29.632Z,2.70
2023-02-04T03:36:56.902Z,2.70
2023-02-04T03:39:24.074Z,2.70
2023-02-04T03:41:51.723Z,2.90
2023-02-04T03:44:19.570Z,2.80
2023-02-04T03:46:46.702Z,2.80
2023-02-04T03:49:13.838Z,2.90
2023-02-04T03:51:41.085Z,2.80
2023-02-04T03:54:08.188Z,2.90
2023-02-04T03:56:35.459Z,2.80
2023-02-04T03:59:02.651Z,3.00
2023-02-04T04:01:29.862Z,2.90
2023-02-04T04:03:57.020Z,2.70
2023-02-04T04:06:24.311Z,2.80
2023-02-04T04:08:51.445Z,2.70
2023-02-04T04:11:18.457Z,2.70
2023-02-04T04:13:45.634Z,2.90
2023-02-04T04:16:12.959Z,2.80
2023-02-04T04:18:40.094Z,2.90
2023-02-04T04:21:07.110Z,3.00
2023-02-04T04:23:35.242Z,3.10
2023-02-04T04:26:02.313Z,2.90
2023-02-04T04:28:29.454Z,2.70
2023-02-04T04:30:56.475Z,2.50
2023-02-04T04:33:23.618Z,2.50
2023-02-04T04:35:50.518Z,2.30
2023-02-04T04:38:17.615Z,2.30
2023-02-04T04:40:44.710Z,2.40
2023-02-04T04:43:11.660Z,2.60
2023-02-04T04:45:39.026Z,2.60
2023-02-04T04:48:06.146Z,2.50
2023-02-04T04:50:33.779Z,2.40
2023-02-04T04:53:00.848Z,2.50
2023-02-04T04:55:28.071Z,2.40
2023-02-04T04:57:55.128Z,2.50
2023-02-04T05:00:22.794Z,2.60
2023-02-04T05:02:50.221Z,2.50
2023-02-04T05:05:17.312Z,2.50
2023-02-04T05:07:44.667Z,2.40
2023-02-04T05:10:11.782Z,2.40
2023-02-04T05:12:39.266Z,2.40
2023-02-04T05:15:07.211Z,2.50
2023-02-04T05:17:34.728Z,2.60
2023-02-04T05:20:01.758Z,2.50
2023-02-04T05:22:29.074Z,2.70
2023-02-04T05:24:56.090Z,2.60
2023-02-04T05:27:23.288Z,2.40
2023-02-04T05:29:50.285Z,2.40
2023-02-04T05:32:17.311Z,2.30
2023-02-04T05:34:44.558Z,2.40
2023-02-04T05:37:11.558Z,2.30
2023-02-04T05:39:38.629Z,2.20
2023-02-04T05:42:05.699Z,2.20
2023-02-04T05:44:32.900Z,2.10
2023-02-04T05:46:59.923Z,2.30
2023-02-04T05:49:27.180Z,2.20
2023-02-04T05:51:54.234Z,2.30
2023-02-04T05:54:21.371Z,2.40
2023-02-04T05:56:48.413Z,2.20
2023-02-04T05:59:15.807Z,2.00
2023-02-04T06:01:43.155Z,2.00
2023-02-04T06:04:10.645Z,2.00
2023-02-04T06:06:38.009Z,2.10
2023-02-04T06:09:05.008Z,2.40
2023-02-04T06:11:32.045Z,2.10
2023-02-04T06:13:59.218Z,2.20
2023-02-04T06:16:27.057Z,2.20
2023-02-04T06:18:54.077Z,2.30
2023-02-04T06:21:21.295Z,2.40
2023-02-04T06:23:48.362Z,2.30
2023-02-04T06:26:15.453Z,2.40
2023-02-04T06:28:42.746Z,2.40
2023-02-04T06:31:09.981Z,2.50
2023-02-04T06:33:37.604Z,2.60
2023-02-04T06:36:05.665Z,2.40
2023-02-04T06:38:32.682Z,2.30
2023-02-04T06:40:59.904Z,2.20
2023-02-04T06:43:27.937Z,2.10
2023-02-04T06:45:55.473Z,2.10
2023-02-04T06:48:22.606Z,2.10
2023-02-04T06:50:49.682Z,2.10
2023-02-04T06:53:16.703Z,2.20
2023-02-04T06:55:44.009Z,2.00
2023-02-04T06:58:10.909Z,2.00
2023-02-04T07:00:37.970Z,2.00
2023-02-04T07:03:07.368Z,2.10
2023-02-04T07:05:34.723Z,2.00
2023-02-04T07:08:02.192Z,2.10
2023-02-04T07:10:29.837Z,2.00
2023-02-04T07:12:57.012Z,2.00
2023-02-04T07:15:24.049Z,1.80
2023-02-04T07:17:51.346Z,1.90
2023-02-04T07:20:18.688Z,2.20
2023-02-04T07:22:45.792Z,2.40
2023-02-04T07:25:14.962Z,2.60
2023-02-04T07:27:42.261Z,2.40
2023-02-04T07:30:11.059Z,2.40
2023-02-04T07:32:38.104Z,2.30
2023-02-04T07:35:07.929Z,2.10
2023-02-04T07:37:34.907Z,2.00
2023-02-04T07:40:02.181Z,1.90
2023-02-04T07:42:29.195Z,1.90
2023-02-04T07:44:56.421Z,2.00
2023-02-04T07:47:23.421Z,1.90
2023-02-04T07:49:51.288Z,1.90
2023-02-04T07:52:18.261Z,2.00
2023-02-04T07:54:48.510Z,2.10
2023-02-04T07:57:15.742Z,2.00
2023-02-04T07:59:42.647Z,2.20
2023-02-04T08:02:11.441Z,2.40
2023-02-04T08:04:39.328Z,2.20
2023-02-04T08:07:06.497Z,2.10
2023-02-04T08:09:33.629Z,2.30
2023-02-04T08:12:00.857Z,2.40
2023-02-04T08:14:27.857Z,2.40
2023-02-04T08:16:55.085Z,2.50
2023-02-04T08:19:22.429Z,2.50
2023-02-04T08:21:49.990Z,2.60
2023-02-04T08:24:17.937Z,3.00
2023-02-04T08:26:45.625Z,3.00
2023-02-04T08:29:12.882Z,3.10
2023-02-04T08:31:40.724Z,3.10
2023-02-04T08:34:08.214Z,3.20
2023-02-04T08:36:35.212Z,3.40
2023-02-04T08:39:02.303Z,3.70
2023-02-04T08:41:29.303Z,3.80
2023-02-04T08:43:57.397Z,3.80
2023-02-04T08:46:24.535Z,3.70
2023-02-04T08:48:51.733Z,3.80
2023-02-04T08:51:19.639Z,3.80
2023-02-04T08:53:46.790Z,3.90
2023-02-04T08:56:16.790Z,4.20
2023-02-04T08:58:46.094Z,4.20
2023-02-04T09:01:13.865Z,4.40
2023-02-04T09:03:41.291Z,4.90
2023-02-04T09:06:09.077Z,4.90
2023-02-04T09:08:36.168Z,4.80
2023-02-04T09:11:04.989Z,4.60
2023-02-04T09:13:32.849Z,4.90
2023-02-04T09:15:59.985Z,5.20
2023-02-04T09:18:27.625Z,5.40
2023-02-04T09:20:54.751Z,5.50
2023-02-04T09:23:23.042Z,5.10
2023-02-04T09:25:50.913Z,5.30
2023-02-04T09:28:18.218Z,4.60
2023-02-04T09:30:47.736Z,4.80
2023-02-04T09:33:17.326Z,4.80
2023-02-04T09:35:45.567Z,5.60
2023-02-04T09:38:12.797Z,5.80
2023-02-04T09:40:53.600Z,5.80
2023-02-04T09:43:29.665Z,6.00
2023-02-04T09:45:58.788Z,6.20
2023-02-04T09:48:26.432Z,6.80
2023-02-04T09:51:07.646Z,6.80
2023-02-04T09:53:37.570Z,5.80
2023-02-04T09:56:05.514Z,6.10
2023-02-04T09:58:36.462Z,5.60
2023-02-04T10:01:18.512Z,4.80
2023-02-04T10:03:51.487Z,4.90
2023-02-04T10:06:22.044Z,5.20
2023-02-04T10:08:52.207Z,6.00
2023-02-04T10:11:23.495Z,6.20
2023-02-04T10:13:57.117Z,6.40
2023-02-04T10:16:34.223Z,5.80
2023-02-04T10:19:07.812Z,6.10
2023-02-04T10:21:37.051Z,6.40
2023-02-04T10:24:19.174Z,6.40
2023-02-04T10:26:47.089Z,6.10
2023-02-04T10:29:25.660Z,6.40
2023-02-04T10:31:53.723Z,6.20
2023-02-04T10:34:39.822Z,6.30
2023-02-04T10:37:22.556Z,6.10
2023-02-04T10:39:50.301Z,6.50
2023-02-04T10:42:31.847Z,7.10
2023-02-04T10:44:59.224Z,7.10
2023-02-04T10:47:31.531Z,7.60
2023-02-04T10:50:06.143Z,7.90
2023-02-04T10:52:50.230Z,7.90
2023-02-04T10:55:22.999Z,7.20
2023-02-04T10:57:53.327Z,8.50
2023-02-04T11:00:26.064Z,8.30
2023-02-04T11:03:02.199Z,8.10
2023-02-04T11:05:35.833Z,7.20
2023-02-04T11:08:21.837Z,7.10
2023-02-04T11:10:58.020Z,6.60
2023-02-04T11:13:41.747Z,6.80
2023-02-04T11:16:28.760Z,6.60
2023-02-04T11:19:14.591Z,6.70
2023-02-04T11:21:46.396Z,7.10
2023-02-04T11:24:16.111Z,7.20
2023-02-04T11:27:06.016Z,7.50
2023-02-04T11:29:39.021Z,6.70
2023-02-04T11:32:34.551Z,5.70
2023-02-04T11:35:28.911Z,5.90
2023-02-04T11:37:58.381Z,6.20
2023-02-04T11:40:38.680Z,5.90
2023-02-04T11:43:16.876Z,5.80
2023-02-04T11:45:45.071Z,5.00
2023-02-04T11:48:20.520Z,4.90
2023-02-04T11:51:03.470Z,5.40
2023-02-04T11:53:34.056Z,5.10
2023-02-04T11:56:01.712Z,4.50
2023-02-04T11:58:31.549Z,4.70
2023-02-04T12:00:59.710Z,5.10
2023-02-04T12:03:36.554Z,5.60
2023-02-04T12:06:04.467Z,6.60
2023-02-04T12:08:43.781Z,7.50
2023-02-04T12:11:30.892Z,7.80
2023-02-04T12:14:17.113Z,6.60
2023-02-04T12:16:51.668Z,5.50
2023-02-04T12:19:19.172Z,5.80
2023-02-04T12:21:46.416Z,5.80
2023-02-04T12:24:14.157Z,5.80
2023-02-04T12:26:41.172Z,5.30
2023-02-04T12:29:09.590Z,5.10
2023-02-04T12:31:36.929Z,4.90
2023-02-04T12:34:04.114Z,5.70
2023-02-04T12:36:37.209Z,5.60
2023-02-04T12:39:04.700Z,5.30
2023-02-04T12:41:38.564Z,4.90
2023-02-04T12:44:05.792Z,4.90
2023-02-04T12:46:33.414Z,5.00
2023-02-04T12:49:09.713Z,5.20
2023-02-04T12:51:36.820Z,5.50
2023-02-04T12:54:03.949Z,5.30
2023-02-04T12:56:34.026Z,5.30
2023-02-04T12:59:01.348Z,5.50
2023-02-04T13:01:29.230Z,5.50
2023-02-04T13:03:56.435Z,5.50
2023-02-04T13:06:23.448Z,6.10
2023-02-04T13:08:50.593Z,6.80
2023-02-04T13:11:17.787Z,7.30
2023-02-04T13:13:45.050Z,7.70
2023-02-04T13:16:12.729Z,7.60
2023-02-04T13:18:39.822Z,7.50
2023-02-04T13:21:06.951Z,6.80
2023-02-04T13:23:33.965Z,6.40
2023-02-04T13:26:01.426Z,5.80
2023-02-04T13:28:28.635Z,5.50
2023-02-04T13:30:55.713Z,5.40
2023-02-04T13:33:22.725Z,5.20
2023-02-04T13:35:49.855Z,5.30
2023-02-04T13:38:17.126Z,5.40
2023-02-04T13:40:44.544Z,5.80
2023-02-04T13:43:11.691Z,5.80
2023-02-04T13:45:40.162Z,6.00
2023-02-04T13:48:07.228Z,5.70
2023-02-04T13:50:34.767Z,5.70
2023-02-04T13:53:02.162Z,5.70
2023-02-04T13:55:29.587Z,5.70
2023-02-04T13:57:56.712Z,5.40
2023-02-04T14:00:27.583Z,5.50
2023-02-04T14:02:56.403Z,5.60
2023-02-04T14:05:24.345Z,5.70
2023-02-04T14:07:53.884Z,5.40
2023-02-04T14:10:25.909Z,5.10
2023-02-04T14:12:54.468Z,4.70
2023-02-04T14:15:23.186Z,4.80
2023-02-04T14:17:52.043Z,5.00
2023-02-04T14:20:21.371Z,4.90
2023-02-04T14:22:48.438Z,4.90
2023-02-04T14:25:15.612Z,4.80
2023-02-04T14:27:42.699Z,4.70
2023-02-04T14:30:24.452Z,4.80
2023-02-04T14:32:52.354Z,4.80
2023-02-04T14:35:20.532Z,4.80
2023-02-04T14:37:48.185Z,4.80
2023-02-04T14:40:19.683Z,5.00
2023-02-04T14:42:47.729Z,5.10
2023-02-04T14:45:15.993Z,5.00
2023-02-04T14:47:43.291Z,5.10
2023-02-04T14:50:17.194Z,4.80
2023-02-04T14:52:44.452Z,5.00
2023-02-04T14:55:12.814Z,4.70
2023-02-04T14:57:39.776Z,4.60
2023-02-04T15:00:08.407Z,4.50
2023-02-04T15:02:35.923Z,4.60
2023-02-04T15:05:03.729Z,4.50
2023-02-04T15:07:30.724Z,4.50
2023-02-04T15:09:57.827Z,4.70
2023-02-04T15:12:25.458Z,4.60
2023-02-04T15:14:52.535Z,4.60
2023-02-04T15:17:19.543Z,4.40
2023-02-04T15:19:46.580Z,4.20
2023-02-04T15:22:14.423Z,4.20
2023-02-04T15:24:41.683Z,4.30
2023-02-04T15:27:08.797Z,4.20
2023-02-04T15:29:35.806Z,4.20
2023-02-04T15:32:04.866Z,4.20
2023-02-04T15:34:33.930Z,4.10
2023-02-04T15:37:04.181Z,4.20
2023-02-04T15:39:31.340Z,4.00
2023-02-04T15:41:58.638Z,4.10
2023-02-04T15:44:28.587Z,4.10
2023-02-04T15:46:55.771Z,3.80
2023-02-04T15:49:22.763Z,4.00
2023-02-04T15:51:49.697Z,4.00
2023-02-04T15:54:16.848Z,3.80
2023-02-04T15:56:49.844Z,3.80
2023-02-04T15:59:20.206Z,3.50
2023-02-04T16:01:47.235Z,3.50
2023-02-04T16:04:14.474Z,3.60
2023-02-04T16:06:47.519Z,3.70
2023-02-04T16:09:20.620Z,3.70
2023-02-04T16:11:47.621Z,3.70
2023-02-04T16:14:14.784Z,3.40
2023-02-04T16:16:41.865Z,3.60
2023-02-04T16:19:09.467Z,3.60
2023-02-04T16:21:36.700Z,3.60
2023-02-04T16:24:04.491Z,3.30
2023-02-04T16:26:32.325Z,3.40
2023-02-04T16:28:59.539Z,3.50
2023-02-04T16:31:26.716Z,3.60
2023-02-04T16:33:54.049Z,3.40
2023-02-04T16:36:22.371Z,3.20
2023-02-04T16:38:49.374Z,3.20
2023-02-04T16:41:16.496Z,2.90
2023-02-04T16:43:43.524Z,2.80
2023-02-04T16:46:12.351Z,2.70
2023-02-04T16:48:39.577Z,2.50
2023-02-04T16:51:06.633Z,2.60
2023-02-04T16:53:33.757Z,2.90
2023-02-04T16:56:02.361Z,2.60
2023-02-04T16:58:29.704Z,2.50
2023-02-04T17:00:57.655Z,2.50
2023-02-04T17:03:24.722Z,2.60
2023-02-04T17:05:51.623Z,2.40
2023-02-04T17:08:18.612Z,2.40
2023-02-04T17:11:04.922Z,2.50
2023-02-04T17:13:32.305Z,2.30
2023-02-04T17:16:01.304Z,2.50
2023-02-04T17:18:31.917Z,2.30
2023-02-04T17:21:00.444Z,2.10
2023-02-04T17:23:28.758Z,2.10
2023-02-04T17:25:56.119Z,2.30
2023-02-04T17:28:24.298Z,2.40
2023-02-04T17:30:51.797Z,2.60
2023-02-04T17:33:19.076Z,2.60
2023-02-04T17:35:46.078Z,2.60
2023-02-04T17:38:13.231Z,2.30
2023-02-04T17:40:40.574Z,2.30
2023-02-04T17:43:24.488Z,2.20
2023-02-04T17:45:51.925Z,2.10
2023-02-04T17:48:19.415Z,2.00
2023-02-04T17:51:02.171Z,1.90
2023-02-04T17:53:42.723Z,1.80
2023-02-04T17:56:14.983Z,1.90
2023-02-04T17:58:43.123Z,1.80
2023-02-04T18:01:36.165Z,1.70
2023-02-04T18:04:06.234Z,1.70
2023-02-04T18:06:33.862Z,1.80
2023-02-04T18:09:05.177Z,1.70
2023-02-04T18:11:40.129Z,1.90
2023-02-04T18:14:24.588Z,1.80
2023-02-04T18:16:59.188Z,1.70
2023-02-04T18:19:35.253Z,1.60
2023-02-04T18:22:18.019Z,1.80
2023-02-04T18:24:49.119Z,1.70
2023-02-04T18:27:28.766Z,1.70
2023-02-04T18:29:59.216Z,1.90
2023-02-04T18:32:40.818Z,1.60
2023-02-04T18:35:23.367Z,1.70
2023-02-04T18:37:55.792Z,1.50
2023-02-04T18:40:32.263Z,1.50
2023-02-04T18:43:25.655Z,1.40
2023-02-04T18:45:54.445Z,1.30
2023-02-04T18:48:21.355Z,1.30
2023-02-04T18:50:54.923Z,1.20
2023-02-04T18:53:29.231Z,1.30
2023-02-04T18:56:02.130Z,1.20
2023-02-04T18:58:45.191Z,0.90
2023-02-04T19:01:12.704Z,1.10
2023-02-04T19:04:00.601Z,1.00
2023-02-04T19:06:44.192Z,1.10
2023-02-04T19:09:14.638Z,1.10
2023-02-04T19:11:51.706Z,1.00
2023-02-04T19:14:51.976Z,0.90
2023-02-04T19:17:30.187Z,1.10
2023-02-04T19:20:00.397Z,0.90
2023-02-04T19:22:54.671Z,0.70
2023-02-04T19:25:35.747Z,0.90
2023-02-04T19:28:36.293Z,0.80
2023-02-04T19:31:07.847Z,1.00
2023-02-04T19:33:48.139Z,1.00
2023-02-04T19:36:35.534Z,0.90
2023-02-04T19:39:40.573Z,1.00
2023-02-04T19:42:36.527Z,0.60
2023-02-04T19:45:25.420Z,0.60
2023-02-04T19:47:56.431Z,0.50
2023-02-04T19:50:35.014Z,0.50
2023-02-04T19:53:18.098Z,0.30
2023-02-04T19:55:53.074Z,0.40
2023-02-04T19:58:34.993Z,0.20
2023-02-04T20:01:24.869Z,0.10
2023-02-04T20:04:04.482Z,0.20
2023-02-04T20:06:39.637Z,0.30
2023-02-04T20:09:29.120Z,0.50
2023-02-04T20:12:08.875Z,0.40
2023-02-04T20:14:47.237Z,0.40
2023-02-04T20:17:44.268Z,0.40
2023-02-04T20:20:32.486Z,0.50
2023-02-04T20:23:33.217Z,0.10
2023-02-04T20:26:02.184Z,0.30
2023-02-04T20:28:43.458Z,0.40
2023-02-04T20:31:29.098Z,0.60
2023-02-04T20:33:59.732Z,0.30
2023-02-04T20:36:32.969Z,0.10
2023-02-04T20:39:37.577Z,0.30
2023-02-04T20:42:52.923Z,0.10
2023-02-04T20:45:56.314Z,0.20
2023-02-04T20:48:41.080Z,0.50
2023-02-04T20:51:26.942Z,0.60
2023-02-04T20:54:01.208Z,0.20
2023-02-04T20:56:40.955Z,0.60
2023-02-04T20:59:34.042Z,0.40
2023-02-04T21:02:17.860Z,0.20
2023-02-04T21:04:51.937Z,0.30
2023-02-04T21:07:22.866Z,0.10
2023-02-04T21:09:51.778Z,0.40
2023-02-04T21:12:19.289Z,0.40
2023-02-04T21:14:46.424Z,0.30
2023-02-04T21:17:13.745Z,0.50
2023-02-04T21:19:42.479Z,0.50
2023-02-04T21:22:09.530Z,0.80
2023-02-04T21:24:36.560Z,0.50
2023-02-04T21:27:10.142Z,0.50
2023-02-04T21:29:37.236Z,0.40
2023-02-04T21:32:04.995Z,0.10
2023-02-04T21:34:32.070Z,0.10
2023-02-04T21:36:59.188Z,0.20
2023-02-04T21:39:26.374Z,0.40
2023-02-04T21:42:10.419Z,0.20
2023-02-04T21:44:41.105Z,0.10
2023-02-04T21:47:08.055Z,0.20
2023-02-04T21:49:41.336Z,0.40
2023-02-04T21:52:10.427Z,0.20
2023-02-04T21:54:39.214Z,0.60
2023-02-04T21:57:06.431Z,0.50
2023-02-04T21:59:33.853Z,0.60
2023-02-04T22:02:03.892Z,0.30
2023-02-04T22:04:30.939Z,0.30
2023-02-04T22:06:58.092Z,0.00
2023-02-04T22:09:25.100Z,-0.20
2023-02-04T22:11:57.748Z,-0.20
2023-02-04T22:14:24.838Z,-0.20
2023-02-04T22:16:52.035Z,-0.10
2023-02-04T22:19:19.809Z,0.10
2023-02-04T22:21:47.165Z,0.30
2023-02-04T22:24:15.209Z,0.50
2023-02-04T22:26:42.328Z,0.60
2023-02-04T22:29:09.280Z,0.60
2023-02-04T22:31:44.037Z,0.20
2023-02-04T22:34:11.068Z,0.20
2023-02-04T22:36:38.519Z,0.30
2023-02-04T22:39:05.655Z,0.20
2023-02-04T22:41:32.843Z,0.20
2023-02-04T22:43:59.884Z,0.50
2023-02-04T22:46:29.859Z,0.60
2023-02-04T22:48:57.451Z,0.50
2023-02-04T22:51:24.709Z,0.40
2023-02-04T22:53:51.747Z,0.70
2023-02-04T22:56:21.414Z,0.60
2023-02-04T22:58:48.708Z,0.20
2023-02-04T23:01:15.959Z,0.10
2023-02-04T23:03:43.195Z,0.20
2023-02-04T23:06:10.700Z,0.30
2023-02-04T23:08:37.901Z,0.10
2023-02-04T23:11:05.165Z,0.20
2023-02-04T23:13:32.363Z,0.20
2023-02-04T23:15:59.455Z,0.20
2023-02-04T23:18:26.870Z,0.20
2023-02-04T23:20:54.150Z,0.50
2023-02-04T23:23:21.321Z,0.60
2023-02-04T23:25:49.452Z,0.90
2023-02-04T23:28:17.345Z,0.90
2023-02-04T23:30:44.453Z,0.80
2023-02-04T23:33:11.872Z,0.70
2023-02-04T23:35:38.896Z,0.60
2023-02-04T23:38:06.033Z,0.80
2023-02-04T23:40:33.244Z,0.70
2023-02-04T23:43:00.209Z,0.70
2023-02-04T23:45:27.129Z,0.70
2023-02-04T23:47:54.333Z,0.70
2023-02-04T23:50:21.430Z,0.80
2023-02-04T23:52:48.609Z,1.00
2023-02-04T23:55:18.443Z,1.10
2023-02-04T23:57:49.729Z,1.10
